createdAt,value
2024-02-10T00:01:39.399Z,8.20
2024-02-10T00:04:07.017Z,8.19
2024-02-10T00:06:34.627Z,8.18
2024-02-10T00:09:02.443Z,8.19
2024-02-10T00:11:30.199Z,8.21
2024-02-10T00:13:57.885Z,8.22
2024-02-10T00:16:25.552Z,8.24
2024-02-10T00:18:53.197Z,8.25
2024-02-10T00:21:21.248Z,8.26
2024-02-10T00:23:48.802Z,8.29
2024-02-10T00:26:16.370Z,8.30
2024-02-10T00:28:44.099Z,8.30
2024-02-10T00:31:11.758Z,8.31
2024-02-10T00:33:39.481Z,8.31
2024-02-10T00:36:07.116Z,8.31
2024-02-10T00:38:34.779Z,8.30
2024-02-10T00:41:02.391Z,8.30
2024-02-10T00:43:30.118Z,8.30
2024-02-10T00:45:58.169Z,8.30
2024-02-10T00:48:25.945Z,8.31
2024-02-10T00:50:53.597Z,8.32
2024-02-10T00:53:21.151Z,8.32
2024-02-10T00:55:48.798Z,8.32
2024-02-10T00:58:16.514Z,8.34
2024-02-10T01:00:44.155Z,8.35
2024-02-10T01:03:11.838Z,8.33
2024-02-10T01:05:39.536Z,8.35
2024-02-10T01:08:07.566Z,8.35
2024-02-10T01:10:35.784Z,8.35
2024-02-10T01:13:03.473Z,8.35
2024-02-10T01:15:31.134Z,8.36
2024-02-10T01:17:58.798Z,8.37
2024-02-10T01:20:26.572Z,8.37
2024-02-10T01:22:54.255Z,8.38
2024-02-10T01:25:21.903Z,8.38
2024-02-10T01:27:49.648Z,8.37
2024-02-10T01:30:17.204Z,8.36
2024-02-10T01:32:44.901Z,8.35
2024-02-10T01:35:12.464Z,8.34
2024-02-10T01:37:40.613Z,8.34
2024-02-10T01:40:08.386Z,8.33
2024-02-10T01:42:35.967Z,8.34
2024-02-10T01:45:03.580Z,8.34
2024-02-10T01:47:31.174Z,8.33
2024-02-10T01:49:58.885Z,8.32
2024-02-10T01:52:26.592Z,8.33
2024-02-10T01:54:54.335Z,8.32
2024-02-10T01:57:21.890Z,8.31
2024-02-10T01:59:49.765Z,8.31
2024-02-10T02:02:17.332Z,8.29
2024-02-10T02:04:44.906Z,8.28
2024-02-10T02:07:12.863Z,8.26
2024-02-10T02:09:40.626Z,8.25
2024-02-10T02:12:08.164Z,8.23
2024-02-10T02:14:35.725Z,8.21
2024-02-10T02:17:03.295Z,8.18
2024-02-10T02:19:30.973Z,8.17
2024-02-10T02:21:58.509Z,8.15
2024-02-10T02:24:26.080Z,8.12
2024-02-10T02:26:54.032Z,8.10
2024-02-10T02:29:21.693Z,8.09
2024-02-10T02:31:49.384Z,8.07
2024-02-10T02:34:16.999Z,8.06
2024-02-10T02:36:44.793Z,8.05
2024-02-10T02:39:12.342Z,8.06
2024-02-10T02:41:40.216Z,8.06
2024-02-10T02:44:07.763Z,8.07
2024-02-10T02:46:35.490Z,8.07
2024-02-10T02:49:03.274Z,8.08
2024-02-10T02:51:31.281Z,8.10
2024-02-10T02:53:58.974Z,8.12
2024-02-10T02:56:26.491Z,8.14
2024-02-10T02:58:54.253Z,8.14
2024-02-10T03:01:22.047Z,8.15
2024-02-10T03:03:49.804Z,8.15
2024-02-10T03:06:17.469Z,8.15
2024-02-10T03:08:45.099Z,8.15
2024-02-10T03:11:12.659Z,8.14
2024-02-10T03:13:40.353Z,8.13
2024-02-10T03:16:08.086Z,8.12
2024-02-10T03:18:36.087Z,8.11
2024-02-10T03:21:03.714Z,8.10
2024-02-10T03:23:31.274Z,8.09
2024-02-10T03:25:58.960Z,8.07
2024-02-10T03:28:26.629Z,8.06
2024-02-10T03:30:54.366Z,8.05
2024-02-10T03:33:22.086Z,8.04
2024-02-10T03:35:49.837Z,8.03
2024-02-10T03:38:17.548Z,8.03
2024-02-10T03:40:45.159Z,8.02
2024-02-10T03:43:12.945Z,8.02
2024-02-10T03:45:40.637Z,8.00
2024-02-10T03:48:08.374Z,8.01
2024-02-10T03:50:36.062Z,8.01
2024-02-10T03:53:03.753Z,8.00
2024-02-10T03:55:31.583Z,8.00
2024-02-10T03:57:59.353Z,8.01
2024-02-10T04:00:26.920Z,8.00
2024-02-10T04:02:54.573Z,8.01
2024-02-10T04:05:22.173Z,8.01
2024-02-10T04:07:50.859Z,8.02
2024-02-10T04:10:18.942Z,8.02
2024-02-10T04:12:46.658Z,8.03
2024-02-10T04:15:14.217Z,8.03
2024-02-10T04:17:41.955Z,8.04
2024-02-10T04:20:09.773Z,8.05
2024-02-10T04:22:37.337Z,8.07
2024-02-10T04:25:05.057Z,8.08
2024-02-10T04:27:32.637Z,8.09
2024-02-10T04:30:00.389Z,8.10
2024-02-10T04:32:28.005Z,8.11
2024-02-10T04:34:56.210Z,8.11
2024-02-10T04:37:23.893Z,8.11
2024-02-10T04:39:51.656Z,8.12
2024-02-10T04:42:19.421Z,8.13
2024-02-10T04:44:47.075Z,8.13
2024-02-10T04:47:14.639Z,8.15
2024-02-10T04:49:42.258Z,8.15
2024-02-10T04:52:09.963Z,8.17
2024-02-10T04:54:37.626Z,8.16
2024-02-10T04:57:05.590Z,8.17
2024-02-10T04:59:33.252Z,8.17
2024-02-10T05:02:00.852Z,8.18
2024-02-10T05:04:28.610Z,8.18
2024-02-10T05:06:56.228Z,8.20
2024-02-10T05:09:23.908Z,8.21
2024-02-10T05:11:51.559Z,8.22
2024-02-10T05:14:19.222Z,8.23
2024-02-10T05:16:46.827Z,8.22
2024-02-10T05:19:14.677Z,8.23
2024-02-10T05:21:42.412Z,8.24
2024-02-10T05:24:10.276Z,8.24
2024-02-10T05:26:37.946Z,8.25
2024-02-10T05:29:05.595Z,8.25
2024-02-10T05:31:33.190Z,8.25
2024-02-10T05:34:00.897Z,8.25
2024-02-10T05:36:28.681Z,8.25
2024-02-10T05:38:56.353Z,8.24
2024-02-10T05:41:24.020Z,8.26
2024-02-10T05:43:51.785Z,8.27
2024-02-10T05:46:19.538Z,8.27
2024-02-10T05:48:47.546Z,8.28
2024-02-10T05:51:15.168Z,8.28
2024-02-10T05:53:42.828Z,8.29
2024-02-10T05:56:10.616Z,8.30
2024-02-10T05:58:38.527Z,8.30
2024-02-10T06:01:06.232Z,8.30
2024-02-10T06:03:33.806Z,8.31
2024-02-10T06:06:01.582Z,8.31
2024-02-10T06:08:29.205Z,8.33
2024-02-10T06:10:56.951Z,8.33
2024-02-10T06:13:24.670Z,8.33
2024-02-10T06:15:52.706Z,8.33
2024-02-10T06:18:20.258Z,8.33
2024-02-10T06:20:47.920Z,8.32
2024-02-10T06:23:15.690Z,8.31
2024-02-10T06:25:44.318Z,8.30
2024-02-10T06:28:12.240Z,8.31
2024-02-10T06:30:39.798Z,8.31
2024-02-10T06:33:07.600Z,8.32
2024-02-10T06:35:35.223Z,8.34
2024-02-10T06:38:02.965Z,8.36
2024-02-10T06:40:30.696Z,8.39
2024-02-10T06:42:58.821Z,8.42
2024-02-10T06:45:26.646Z,8.44
2024-02-10T06:47:54.655Z,8.47
2024-02-10T06:50:22.529Z,8.52
2024-02-10T06:52:50.350Z,8.56
2024-02-10T06:55:18.143Z,8.62
2024-02-10T06:57:45.921Z,8.70
2024-02-10T07:00:13.479Z,8.77
2024-02-10T07:02:41.041Z,8.88
2024-02-10T07:05:09.074Z,8.97
2024-02-10T07:07:36.881Z,9.03
2024-02-10T07:10:04.539Z,9.05
2024-02-10T07:12:32.304Z,9.05
2024-02-10T07:14:59.959Z,9.07
2024-02-10T07:17:27.549Z,9.12
2024-02-10T07:19:55.192Z,9.18
2024-02-10T07:22:22.958Z,9.30
2024-02-10T07:24:50.504Z,9.47
2024-02-10T07:27:18.071Z,9.80
2024-02-10T07:29:45.629Z,10.22
2024-02-10T07:32:13.586Z,10.42
2024-02-10T07:34:41.272Z,10.81
2024-02-10T07:37:08.916Z,11.18
2024-02-10T07:39:36.587Z,11.27
2024-02-10T07:42:04.126Z,11.30
2024-02-10T07:44:31.785Z,11.28
2024-02-10T07:46:59.488Z,11.17
2024-02-10T07:49:27.121Z,11.13
2024-02-10T07:51:54.675Z,11.10
2024-02-10T07:54:22.236Z,11.10
2024-02-10T07:56:49.907Z,11.12
2024-02-10T07:59:17.824Z,11.14
2024-02-10T08:01:45.772Z,11.26
2024-02-10T08:04:13.491Z,11.58
2024-02-10T08:06:41.259Z,11.63
2024-02-10T08:09:08.921Z,11.53
2024-02-10T08:11:36.580Z,11.60
2024-02-10T08:14:04.229Z,11.96
2024-02-10T08:16:32.279Z,12.19
2024-02-10T08:18:59.997Z,12.67
2024-02-10T08:21:28.058Z,12.79
2024-02-10T08:23:55.608Z,12.82
2024-02-10T08:26:23.187Z,12.75
2024-02-10T08:28:50.863Z,12.72
2024-02-10T08:31:18.644Z,12.56
2024-02-10T08:33:46.394Z,12.35
2024-02-10T08:36:14.232Z,12.29
2024-02-10T08:38:41.780Z,12.25
2024-02-10T08:41:09.470Z,12.13
2024-02-10T08:43:37.249Z,12.07
2024-02-10T08:46:05.188Z,12.13
2024-02-10T08:48:32.900Z,12.20
2024-02-10T08:51:00.708Z,12.38
2024-02-10T08:53:28.279Z,12.98
2024-02-10T08:55:55.938Z,14.28
2024-02-10T08:58:23.527Z,16.35
2024-02-10T09:00:51.271Z,18.13
2024-02-10T09:03:18.965Z,19.73
2024-02-10T09:05:46.675Z,21.07
2024-02-10T09:08:14.269Z,22.17
2024-02-10T09:10:42.229Z,22.93
2024-02-10T09:13:09.843Z,23.60
2024-02-10T09:15:37.627Z,23.61
2024-02-10T09:18:05.309Z,23.48
2024-02-10T09:20:32.942Z,23.64
2024-02-10T09:23:00.694Z,22.75
2024-02-10T09:25:28.480Z,21.56
2024-02-10T09:27:56.450Z,20.71
2024-02-10T09:30:24.009Z,20.64
2024-02-10T09:32:51.717Z,20.80
2024-02-10T09:35:25.513Z,21.31
2024-02-10T09:38:00.463Z,22.88
2024-02-10T09:40:28.225Z,24.18
2024-02-10T09:42:56.037Z,25.08
2024-02-10T09:45:24.109Z,25.70
2024-02-10T09:47:51.877Z,26.22
2024-02-10T09:50:30.835Z,26.72
2024-02-10T09:53:02.548Z,26.99
2024-02-10T09:55:30.246Z,27.25
2024-02-10T09:57:57.876Z,27.49
2024-02-10T10:00:25.439Z,27.71
2024-02-10T10:02:53.111Z,27.91
2024-02-10T10:05:20.904Z,28.19
2024-02-10T10:07:48.752Z,28.37
2024-02-10T10:10:16.390Z,28.53
2024-02-10T10:12:44.048Z,28.75
2024-02-10T10:15:11.609Z,28.88
2024-02-10T10:17:39.317Z,29.08
2024-02-10T10:20:07.101Z,29.16
2024-02-10T10:22:35.225Z,29.23
2024-02-10T10:25:02.874Z,29.56
2024-02-10T10:27:30.426Z,29.49
2024-02-10T10:29:58.134Z,29.41
2024-02-10T10:32:25.957Z,29.45
2024-02-10T10:34:53.651Z,29.69
2024-02-10T10:37:21.314Z,29.95
2024-02-10T10:39:49.035Z,30.11
2024-02-10T10:42:16.600Z,30.16
2024-02-10T10:44:44.258Z,30.25
2024-02-10T10:47:12.254Z,30.35
2024-02-10T10:49:40.035Z,30.59
2024-02-10T10:52:07.761Z,30.88
2024-02-10T10:54:35.904Z,31.03
2024-02-10T10:57:04.101Z,31.33
2024-02-10T10:59:31.766Z,31.76
2024-02-10T11:01:59.341Z,32.33
2024-02-10T11:04:26.996Z,32.84
2024-02-10T11:06:54.550Z,33.08
2024-02-10T11:09:22.233Z,33.15
2024-02-10T11:11:50.176Z,32.78
2024-02-10T11:14:17.732Z,32.60
2024-02-10T11:16:45.514Z,32.63
2024-02-10T11:19:16.418Z,32.59
2024-02-10T11:21:45.119Z,31.56
2024-02-10T11:24:12.865Z,29.98
2024-02-10T11:26:41.040Z,29.41
2024-02-10T11:29:08.954Z,28.49
2024-02-10T11:31:36.680Z,28.43
2024-02-10T11:34:04.522Z,29.05
2024-02-10T11:36:32.220Z,29.90
2024-02-10T11:39:00.088Z,30.42
2024-02-10T11:41:27.654Z,30.90
2024-02-10T11:43:55.337Z,31.65
2024-02-10T11:46:23.082Z,32.13
2024-02-10T11:48:50.690Z,32.77
2024-02-10T11:51:18.522Z,33.65
2024-02-10T11:53:46.078Z,34.23
2024-02-10T11:56:13.962Z,34.60
2024-02-10T11:58:41.741Z,34.76
2024-02-10T12:01:09.524Z,34.88
2024-02-10T12:03:37.516Z,34.77
2024-02-10T12:06:05.293Z,34.70
2024-02-10T12:08:32.948Z,34.88
2024-02-10T12:11:00.775Z,35.30
2024-02-10T12:13:28.920Z,35.55
2024-02-10T12:15:56.648Z,35.35
2024-02-10T12:18:24.338Z,35.17
2024-02-10T12:20:51.873Z,35.12
2024-02-10T12:23:19.530Z,35.12
2024-02-10T12:25:47.239Z,34.89
2024-02-10T12:28:15.056Z,34.39
2024-02-10T12:30:43.028Z,33.93
2024-02-10T12:33:10.617Z,33.67
2024-02-10T12:35:38.349Z,33.14
2024-02-10T12:38:05.975Z,32.81
2024-02-10T12:40:33.784Z,32.44
2024-02-10T12:43:01.437Z,31.99
2024-02-10T12:45:28.996Z,31.27
2024-02-10T12:47:56.729Z,30.66
2024-02-10T12:50:24.536Z,30.53
2024-02-10T12:52:52.262Z,30.46
2024-02-10T12:55:20.149Z,30.29
2024-02-10T12:57:47.712Z,30.14
2024-02-10T13:00:15.272Z,29.93
2024-02-10T13:02:42.831Z,29.48
2024-02-10T13:05:10.547Z,28.94
2024-02-10T13:07:38.186Z,28.20
2024-02-10T13:10:05.918Z,27.60
2024-02-10T13:12:33.477Z,27.29
2024-02-10T13:15:01.154Z,26.99
2024-02-10T13:17:28.780Z,26.51
2024-02-10T13:19:57.273Z,26.13
2024-02-10T13:22:25.165Z,25.79
2024-02-10T13:24:52.826Z,25.37
2024-02-10T13:27:20.476Z,25.18
2024-02-10T13:29:48.027Z,25.04
2024-02-10T13:32:15.722Z,24.84
2024-02-10T13:34:55.617Z,24.56
2024-02-10T13:37:30.910Z,23.89
2024-02-10T13:39:58.439Z,23.18
2024-02-10T13:42:26.522Z,22.67
2024-02-10T13:44:54.174Z,22.27
2024-02-10T13:47:21.840Z,21.85
2024-02-10T13:49:50.053Z,21.42
2024-02-10T13:52:17.667Z,21.10
2024-02-10T13:54:45.356Z,20.84
2024-02-10T13:57:12.889Z,20.53
2024-02-10T13:59:40.685Z,20.24
2024-02-10T14:02:08.313Z,20.03
2024-02-10T14:04:36.541Z,19.88
2024-02-10T14:07:04.358Z,19.69
2024-02-10T14:09:31.917Z,19.53
2024-02-10T14:11:59.582Z,19.37
2024-02-10T14:14:27.144Z,19.28
2024-02-10T14:16:54.819Z,19.15
2024-02-10T14:19:22.495Z,18.96
2024-02-10T14:21:50.242Z,18.72
2024-02-10T14:24:17.956Z,18.41
2024-02-10T14:26:45.649Z,18.13
2024-02-10T14:29:13.314Z,17.83
2024-02-10T14:31:41.308Z,17.54
2024-02-10T14:34:09.023Z,17.25
2024-02-10T14:36:36.721Z,16.98
2024-02-10T14:39:04.482Z,16.73
2024-02-10T14:41:32.039Z,16.51
2024-02-10T14:43:59.742Z,16.31
2024-02-10T14:46:27.580Z,16.09
2024-02-10T14:48:55.188Z,15.88
2024-02-10T14:51:22.885Z,15.68
2024-02-10T14:53:50.436Z,15.47
2024-02-10T14:56:17.904Z,15.29
2024-02-10T14:58:45.548Z,15.11
2024-02-10T15:01:13.257Z,14.94
2024-02-10T15:03:40.909Z,14.76
2024-02-10T15:06:08.656Z,14.59
2024-02-10T15:08:36.223Z,14.42
2024-02-10T15:11:03.983Z,14.30
2024-02-10T15:13:31.804Z,14.16
2024-02-10T15:15:59.398Z,14.05
2024-02-10T15:18:27.128Z,13.93
2024-02-10T15:20:54.824Z,13.80
2024-02-10T15:23:22.785Z,13.63
2024-02-10T15:25:50.370Z,13.48
2024-02-10T15:28:18.004Z,13.38
2024-02-10T15:30:45.570Z,13.28
2024-02-10T15:33:13.319Z,13.17
2024-02-10T15:35:41.024Z,13.07
2024-02-10T15:38:08.659Z,12.97
2024-02-10T15:40:36.251Z,12.89
2024-02-10T15:43:03.886Z,12.81
2024-02-10T15:45:31.570Z,12.72
2024-02-10T15:47:59.526Z,12.65
2024-02-10T15:50:27.270Z,12.58
2024-02-10T15:52:54.966Z,12.53
2024-02-10T15:55:22.918Z,12.48
2024-02-10T15:57:50.796Z,12.42
2024-02-10T16:00:18.654Z,12.38
2024-02-10T16:02:46.465Z,12.34
2024-02-10T16:05:14.385Z,12.30
2024-02-10T16:07:42.391Z,12.25
2024-02-10T16:10:10.205Z,12.21
2024-02-10T16:12:38.528Z,12.16
2024-02-10T16:15:06.683Z,12.13
2024-02-10T16:17:34.573Z,12.09
2024-02-10T16:20:02.576Z,12.05
2024-02-10T16:22:30.587Z,12.02
2024-02-10T16:24:58.368Z,12.00
2024-02-10T16:27:26.411Z,11.96
2024-02-10T16:29:54.187Z,11.93
2024-02-10T16:32:22.125Z,11.92
2024-02-10T16:34:50.093Z,11.90
2024-02-10T16:37:17.929Z,11.88
2024-02-10T16:39:46.265Z,11.85
2024-02-10T16:42:14.119Z,11.82
2024-02-10T16:44:41.995Z,11.80
2024-02-10T16:47:10.062Z,11.78
2024-02-10T16:49:38.835Z,11.75
2024-02-10T16:52:06.690Z,11.73
2024-02-10T16:54:34.670Z,11.70
2024-02-10T16:57:02.548Z,11.66
2024-02-10T16:59:30.536Z,11.60
2024-02-10T17:01:58.923Z,11.54
2024-02-10T17:04:27.049Z,11.48
2024-02-10T17:06:55.031Z,11.45
2024-02-10T17:09:23.323Z,11.40
2024-02-10T17:11:51.276Z,11.35
2024-02-10T17:14:19.247Z,11.30
2024-02-10T17:16:47.274Z,11.23
2024-02-10T17:19:15.356Z,11.16
2024-02-10T17:21:43.269Z,11.10
2024-02-10T17:24:11.236Z,11.05
2024-02-10T17:26:39.453Z,11.01
2024-02-10T17:29:07.813Z,10.95
2024-02-10T17:31:35.964Z,10.91
2024-02-10T17:34:03.908Z,10.86
2024-02-10T17:36:31.882Z,10.83
2024-02-10T17:38:59.857Z,10.78
2024-02-10T17:41:27.706Z,10.74
2024-02-10T17:43:55.738Z,10.72
2024-02-10T17:46:23.848Z,10.69
2024-02-10T17:48:51.773Z,10.67
2024-02-10T17:51:19.914Z,10.63
2024-02-10T17:53:48.402Z,10.59
2024-02-10T17:56:16.354Z,10.54
2024-02-10T17:58:44.456Z,10.51
2024-02-10T18:01:12.463Z,10.48
2024-02-10T18:03:40.355Z,10.44
2024-02-10T18:06:08.535Z,10.40
2024-02-10T18:08:36.590Z,10.37
